North Chelmsford, Massachusetts
Current Conditions -  °F | °C
As of 10:51 PM on Saturday 25 Oct 2014 (Local Time) from KASH Reporting Station
Broken Clouds Broken Clouds  
Wind Chill: 54°   Ceiling: 8500
Heat Index: 54°   Visibility: 10mi
Dew Point: 45°   Wind: 3mph
Humidity: 72%   Direction: NA
Pressure: 29.52"   Gusts: NA
Location:  42.64°N, 71.38°W
Report Text: KASH 260251Z AUTO VRB03KT 10SM SCT070 BKN085 12/07 A2952 RMK AO2 56021 T01220072 SLP240 $
Loading
Personal Weather Stations






























Interactive Weather Map
Tropical Storm Tracking
New forecast layout! Learn more

10-Day Weather Forecast

Advertisements
Track Severe Weather on mobile